sensor_id;sensor_type;location;lat;lon;timestamp;temperature;humidity
4487;DHT22;2256;48.740;9.106;2023-02-25T00:00:42;4.40;99.90
4487;DHT22;2256;48.740;9.106;2023-02-25T00:03:11;4.40;99.90
4487;DHT22;2256;48.740;9.106;2023-02-25T00:05:40;4.40;99.90
4487;DHT22;2256;48.740;9.106;2023-02-25T00:08:08;4.40;99.90
4487;DHT22;2256;48.740;9.106;2023-02-25T00:10:35;4.40;99.90
4487;DHT22;2256;48.740;9.106;2023-02-25T00:13:03;4.40;99.90
4487;DHT22;2256;48.740;9.106;2023-02-25T00:15:30;4.40;99.90
4487;DHT22;2256;48.740;9.106;2023-02-25T00:17:57;4.40;99.90
4487;DHT22;2256;48.740;9.106;2023-02-25T00:20:23;4.40;99.90
4487;DHT22;2256;48.740;9.106;2023-02-25T00:22:51;4.40;99.90
4487;DHT22;2256;48.740;9.106;2023-02-25T00:25:19;4.40;99.90
4487;DHT22;2256;48.740;9.106;2023-02-25T00:27:45;4.40;99.90
4487;DHT22;2256;48.740;9.106;2023-02-25T00:30:12;4.40;99.90
4487;DHT22;2256;48.740;9.106;2023-02-25T00:32:39;4.40;99.90
4487;DHT22;2256;48.740;9.106;2023-02-25T00:35:07;4.50;99.90
4487;DHT22;2256;48.740;9.106;2023-02-25T00:37:37;4.50;99.90
4487;DHT22;2256;48.740;9.106;2023-02-25T00:40:05;4.40;99.90
4487;DHT22;2256;48.740;9.106;2023-02-25T00:42:36;4.40;99.90
4487;DHT22;2256;48.740;9.106;2023-02-25T00:45:03;4.50;99.90
4487;DHT22;2256;48.740;9.106;2023-02-25T00:47:30;4.50;99.90
4487;DHT22;2256;48.740;9.106;2023-02-25T00:49:57;4.40;99.90
4487;DHT22;2256;48.740;9.106;2023-02-25T00:52:24;4.40;99.90
4487;DHT22;2256;48.740;9.106;2023-02-25T00:54:51;4.40;99.90
4487;DHT22;2256;48.740;9.106;2023-02-25T00:57:20;4.40;99.90
4487;DHT22;2256;48.740;9.106;2023-02-25T00:59:49;4.40;99.90
4487;DHT22;2256;48.740;9.106;2023-02-25T01:02:16;4.40;99.90
4487;DHT22;2256;48.740;9.106;2023-02-25T01:04:43;4.60;99.90
4487;DHT22;2256;48.740;9.106;2023-02-25T01:07:09;4.20;99.90
4487;DHT22;2256;48.740;9.106;2023-02-25T01:09:36;4.20;99.90
4487;DHT22;2256;48.740;9.106;2023-02-25T01:12:03;4.30;99.90
4487;DHT22;2256;48.740;9.106;2023-02-25T01:14:30;4.10;99.90
4487;DHT22;2256;48.740;9.106;2023-02-25T01:16:58;4.30;99.90
4487;DHT22;2256;48.740;9.106;2023-02-25T01:19:28;4.30;99.90
4487;DHT22;2256;48.740;9.106;2023-02-25T01:21:56;4.30;99.90
4487;DHT22;2256;48.740;9.106;2023-02-25T01:24:25;4.30;99.90
4487;DHT22;2256;48.740;9.106;2023-02-25T01:26:54;4.30;99.90
4487;DHT22;2256;48.740;9.106;2023-02-25T01:29:22;4.30;99.90
4487;DHT22;2256;48.740;9.106;2023-02-25T01:31:51;4.30;99.90
4487;DHT22;2256;48.740;9.106;2023-02-25T01:34:20;4.20;99.90
4487;DHT22;2256;48.740;9.106;2023-02-25T01:36:47;4.10;99.90
4487;DHT22;2256;48.740;9.106;2023-02-25T01:39:15;4.10;99.90
4487;DHT22;2256;48.740;9.106;2023-02-25T01:41:42;4.00;99.90
4487;DHT22;2256;48.740;9.106;2023-02-25T01:44:12;3.90;99.90
4487;DHT22;2256;48.740;9.106;2023-02-25T01:46:41;3.70;99.90
4487;DHT22;2256;48.740;9.106;2023-02-25T01:49:10;3.70;99.90
4487;DHT22;2256;48.740;9.106;2023-02-25T01:51:41;3.80;99.90
4487;DHT22;2256;48.740;9.106;2023-02-25T01:54:11;3.80;99.90
4487;DHT22;2256;48.740;9.106;2023-02-25T01:56:41;3.70;99.90
4487;DHT22;2256;48.740;9.106;2023-02-25T01:59:09;3.60;99.90
4487;DHT22;2256;48.740;9.106;2023-02-25T02:01:38;3.60;99.90
4487;DHT22;2256;48.740;9.106;2023-02-25T02:04:07;3.60;99.90
4487;DHT22;2256;48.740;9.106;2023-02-25T02:06:38;3.60;99.90
4487;DHT22;2256;48.740;9.106;2023-02-25T02:09:10;3.60;99.90
4487;DHT22;2256;48.740;9.106;2023-02-25T02:11:38;3.50;99.90
4487;DHT22;2256;48.740;9.106;2023-02-25T02:14:06;3.60;99.90
4487;DHT22;2256;48.740;9.106;2023-02-25T02:16:43;3.60;99.90
4487;DHT22;2256;48.740;9.106;2023-02-25T02:19:30;3.60;99.90
4487;DHT22;2256;48.740;9.106;2023-02-25T02:22:05;3.80;99.90
4487;DHT22;2256;48.740;9.106;2023-02-25T02:27:53;3.70;99.90
4487;DHT22;2256;48.740;9.106;2023-02-25T02:30:39;3.80;99.90
4487;DHT22;2256;48.740;9.106;2023-02-25T02:33:20;3.80;99.90
4487;DHT22;2256;48.740;9.106;2023-02-25T02:35:54;3.80;99.90
4487;DHT22;2256;48.740;9.106;2023-02-25T02:38:27;3.80;99.90
4487;DHT22;2256;48.740;9.106;2023-02-25T02:41:02;3.90;99.90
4487;DHT22;2256;48.740;9.106;2023-02-25T02:43:37;3.90;99.90
4487;DHT22;2256;48.740;9.106;2023-02-25T02:46:11;4.00;99.90
4487;DHT22;2256;48.740;9.106;2023-02-25T02:48:44;4.10;99.90
4487;DHT22;2256;48.740;9.106;2023-02-25T02:51:17;4.00;99.90
4487;DHT22;2256;48.740;9.106;2023-02-25T02:53:50;4.00;99.90
4487;DHT22;2256;48.740;9.106;2023-02-25T02:56:19;4.10;99.90
4487;DHT22;2256;48.740;9.106;2023-02-25T02:58:51;4.00;99.90
4487;DHT22;2256;48.740;9.106;2023-02-25T03:01:22;4.00;99.90
4487;DHT22;2256;48.740;9.106;2023-02-25T03:03:54;4.00;99.90
4487;DHT22;2256;48.740;9.106;2023-02-25T03:06:28;3.80;99.90
4487;DHT22;2256;48.740;9.106;2023-02-25T03:09:02;3.80;99.90
4487;DHT22;2256;48.740;9.106;2023-02-25T03:11:30;3.80;99.90
4487;DHT22;2256;48.740;9.106;2023-02-25T03:13:57;3.80;99.90
4487;DHT22;2256;48.740;9.106;2023-02-25T03:16:27;3.80;99.90
4487;DHT22;2256;48.740;9.106;2023-02-25T03:18:59;3.70;99.90
4487;DHT22;2256;48.740;9.106;2023-02-25T03:21:34;3.90;99.90
4487;DHT22;2256;48.740;9.106;2023-02-25T03:24:07;3.80;99.90
4487;DHT22;2256;48.740;9.106;2023-02-25T03:26:37;3.80;99.90
4487;DHT22;2256;48.740;9.106;2023-02-25T03:29:12;3.80;99.90
4487;DHT22;2256;48.740;9.106;2023-02-25T03:31:44;3.90;99.90
4487;DHT22;2256;48.740;9.106;2023-02-25T03:34:17;3.80;99.90
4487;DHT22;2256;48.740;9.106;2023-02-25T03:36:48;3.80;99.90
4487;DHT22;2256;48.740;9.106;2023-02-25T03:39:18;3.80;99.90
4487;DHT22;2256;48.740;9.106;2023-02-25T03:41:50;3.60;99.90
4487;DHT22;2256;48.740;9.106;2023-02-25T03:44:20;3.60;99.90
4487;DHT22;2256;48.740;9.106;2023-02-25T03:46:50;3.50;99.90
4487;DHT22;2256;48.740;9.106;2023-02-25T03:49:24;3.60;99.90
4487;DHT22;2256;48.740;9.106;2023-02-25T03:51:53;3.50;99.90
4487;DHT22;2256;48.740;9.106;2023-02-25T03:54:22;3.60;99.90
4487;DHT22;2256;48.740;9.106;2023-02-25T03:56:50;3.50;99.90
4487;DHT22;2256;48.740;9.106;2023-02-25T03:59:18;3.50;99.90
4487;DHT22;2256;48.740;9.106;2023-02-25T04:01:49;3.50;99.90
4487;DHT22;2256;48.740;9.106;2023-02-25T04:04:19;3.40;99.90
4487;DHT22;2256;48.740;9.106;2023-02-25T04:06:45;3.40;99.90
4487;DHT22;2256;48.740;9.106;2023-02-25T04:09:12;3.50;99.90
4487;DHT22;2256;48.740;9.106;2023-02-25T04:11:39;3.60;99.90
4487;DHT22;2256;48.740;9.106;2023-02-25T04:14:06;3.50;99.90
4487;DHT22;2256;48.740;9.106;2023-02-25T04:16:33;3.60;99.90
4487;DHT22;2256;48.740;9.106;2023-02-25T04:19:00;3.50;99.90
4487;DHT22;2256;48.740;9.106;2023-02-25T04:21:30;3.40;99.90
4487;DHT22;2256;48.740;9.106;2023-02-25T04:23:57;3.50;99.90
4487;DHT22;2256;48.740;9.106;2023-02-25T04:26:24;3.50;99.90
4487;DHT22;2256;48.740;9.106;2023-02-25T04:28:51;3.50;99.90
4487;DHT22;2256;48.740;9.106;2023-02-25T04:31:18;3.50;99.90
4487;DHT22;2256;48.740;9.106;2023-02-25T04:33:45;3.50;99.90
4487;DHT22;2256;48.740;9.106;2023-02-25T04:36:25;3.50;99.90
4487;DHT22;2256;48.740;9.106;2023-02-25T04:38:55;3.60;99.90
4487;DHT22;2256;48.740;9.106;2023-02-25T04:41:23;3.50;99.90
4487;DHT22;2256;48.740;9.106;2023-02-25T04:43:50;3.50;99.90
4487;DHT22;2256;48.740;9.106;2023-02-25T04:46:17;3.60;99.90
4487;DHT22;2256;48.740;9.106;2023-02-25T04:48:43;3.70;99.90
4487;DHT22;2256;48.740;9.106;2023-02-25T04:51:10;3.70;99.90
4487;DHT22;2256;48.740;9.106;2023-02-25T04:53:37;3.60;99.90
4487;DHT22;2256;48.740;9.106;2023-02-25T04:56:07;3.60;99.90
4487;DHT22;2256;48.740;9.106;2023-02-25T04:58:35;3.50;99.90
4487;DHT22;2256;48.740;9.106;2023-02-25T05:01:05;3.50;99.90
4487;DHT22;2256;48.740;9.106;2023-02-25T05:03:33;3.60;99.90
4487;DHT22;2256;48.740;9.106;2023-02-25T05:06:01;3.50;99.90
4487;DHT22;2256;48.740;9.106;2023-02-25T05:08:28;3.40;99.90
4487;DHT22;2256;48.740;9.106;2023-02-25T05:10:55;3.30;99.90
4487;DHT22;2256;48.740;9.106;2023-02-25T05:13:24;3.30;99.90
4487;DHT22;2256;48.740;9.106;2023-02-25T05:15:54;3.30;99.90
4487;DHT22;2256;48.740;9.106;2023-02-25T05:18:28;3.30;99.90
4487;DHT22;2256;48.740;9.106;2023-02-25T05:20:54;3.30;99.90
4487;DHT22;2256;48.740;9.106;2023-02-25T05:23:21;3.20;99.90
4487;DHT22;2256;48.740;9.106;2023-02-25T05:25:48;3.20;99.90
4487;DHT22;2256;48.740;9.106;2023-02-25T05:28:15;3.10;99.90
4487;DHT22;2256;48.740;9.106;2023-02-25T05:30:43;3.10;99.90
4487;DHT22;2256;48.740;9.106;2023-02-25T05:33:10;3.10;99.90
4487;DHT22;2256;48.740;9.106;2023-02-25T05:35:38;3.20;99.90
4487;DHT22;2256;48.740;9.106;2023-02-25T05:38:05;3.10;99.90
4487;DHT22;2256;48.740;9.106;2023-02-25T05:40:32;3.20;99.90
4487;DHT22;2256;48.740;9.106;2023-02-25T05:43:00;3.20;99.90
4487;DHT22;2256;48.740;9.106;2023-02-25T05:45:27;3.10;99.90
4487;DHT22;2256;48.740;9.106;2023-02-25T05:47:55;3.10;99.90
4487;DHT22;2256;48.740;9.106;2023-02-25T05:50:22;3.20;99.90
4487;DHT22;2256;48.740;9.106;2023-02-25T05:52:49;3.30;99.90
4487;DHT22;2256;48.740;9.106;2023-02-25T05:55:16;3.30;99.90
4487;DHT22;2256;48.740;9.106;2023-02-25T05:57:43;3.30;99.90
4487;DHT22;2256;48.740;9.106;2023-02-25T06:00:11;3.30;99.90
4487;DHT22;2256;48.740;9.106;2023-02-25T06:02:39;3.40;99.90
4487;DHT22;2256;48.740;9.106;2023-02-25T06:05:08;3.30;99.90
4487;DHT22;2256;48.740;9.106;2023-02-25T06:07:35;3.30;99.90
4487;DHT22;2256;48.740;9.106;2023-02-25T06:10:02;3.40;99.90
4487;DHT22;2256;48.740;9.106;2023-02-25T06:12:30;3.30;99.90
4487;DHT22;2256;48.740;9.106;2023-02-25T06:14:58;3.40;99.90
4487;DHT22;2256;48.740;9.106;2023-02-25T06:17:26;3.40;99.90
4487;DHT22;2256;48.740;9.106;2023-02-25T06:19:53;3.40;99.90
4487;DHT22;2256;48.740;9.106;2023-02-25T06:22:22;3.30;99.90
4487;DHT22;2256;48.740;9.106;2023-02-25T06:24:48;3.30;99.90
4487;DHT22;2256;48.740;9.106;2023-02-25T06:27:16;3.30;99.90
4487;DHT22;2256;48.740;9.106;2023-02-25T06:29:46;3.30;99.90
4487;DHT22;2256;48.740;9.106;2023-02-25T06:32:13;3.30;99.90
4487;DHT22;2256;48.740;9.106;2023-02-25T06:34:40;3.30;99.90
4487;DHT22;2256;48.740;9.106;2023-02-25T06:37:07;3.20;99.90
4487;DHT22;2256;48.740;9.106;2023-02-25T06:39:36;3.20;99.90
4487;DHT22;2256;48.740;9.106;2023-02-25T06:42:03;3.30;99.90
4487;DHT22;2256;48.740;9.106;2023-02-25T06:44:29;3.30;99.90
4487;DHT22;2256;48.740;9.106;2023-02-25T06:46:56;3.40;99.90
4487;DHT22;2256;48.740;9.106;2023-02-25T06:49:23;3.50;99.90
4487;DHT22;2256;48.740;9.106;2023-02-25T06:51:50;3.50;99.90
4487;DHT22;2256;48.740;9.106;2023-02-25T06:54:17;3.40;99.90
4487;DHT22;2256;48.740;9.106;2023-02-25T06:56:45;3.50;99.90
4487;DHT22;2256;48.740;9.106;2023-02-25T06:59:12;3.50;99.90
4487;DHT22;2256;48.740;9.106;2023-02-25T07:01:39;3.50;99.90
4487;DHT22;2256;48.740;9.106;2023-02-25T07:04:06;3.50;99.90
4487;DHT22;2256;48.740;9.106;2023-02-25T07:06:33;3.60;99.90
4487;DHT22;2256;48.740;9.106;2023-02-25T07:08:59;3.60;99.90
4487;DHT22;2256;48.740;9.106;2023-02-25T07:11:28;3.60;99.90
4487;DHT22;2256;48.740;9.106;2023-02-25T07:13:57;3.70;99.90
4487;DHT22;2256;48.740;9.106;2023-02-25T07:16:24;3.90;99.90
4487;DHT22;2256;48.740;9.106;2023-02-25T07:18:51;3.90;99.90
4487;DHT22;2256;48.740;9.106;2023-02-25T07:21:17;3.90;99.90
4487;DHT22;2256;48.740;9.106;2023-02-25T07:23:44;4.10;99.90
4487;DHT22;2256;48.740;9.106;2023-02-25T07:26:12;4.30;99.90
4487;DHT22;2256;48.740;9.106;2023-02-25T07:28:39;4.30;99.90
4487;DHT22;2256;48.740;9.106;2023-02-25T07:31:11;4.40;99.90
4487;DHT22;2256;48.740;9.106;2023-02-25T07:33:39;4.30;99.90
4487;DHT22;2256;48.740;9.106;2023-02-25T07:36:07;4.40;99.90
4487;DHT22;2256;48.740;9.106;2023-02-25T07:38:34;5.00;99.90
4487;DHT22;2256;48.740;9.106;2023-02-25T07:41:05;5.50;99.90
4487;DHT22;2256;48.740;9.106;2023-02-25T07:43:32;6.10;99.90
4487;DHT22;2256;48.740;9.106;2023-02-25T07:45:59;7.00;99.90
4487;DHT22;2256;48.740;9.106;2023-02-25T07:48:27;7.40;99.90
4487;DHT22;2256;48.740;9.106;2023-02-25T07:50:54;8.00;99.90
4487;DHT22;2256;48.740;9.106;2023-02-25T07:53:21;8.30;99.90
4487;DHT22;2256;48.740;9.106;2023-02-25T07:55:49;8.30;99.90
4487;DHT22;2256;48.740;9.106;2023-02-25T07:58:16;8.30;99.60
4487;DHT22;2256;48.740;9.106;2023-02-25T08:00:43;8.00;99.40
4487;DHT22;2256;48.740;9.106;2023-02-25T08:03:11;7.50;99.20
4487;DHT22;2256;48.740;9.106;2023-02-25T08:05:39;7.20;99.30
4487;DHT22;2256;48.740;9.106;2023-02-25T08:08:06;7.20;99.60
4487;DHT22;2256;48.740;9.106;2023-02-25T08:10:33;7.00;99.40
4487;DHT22;2256;48.740;9.106;2023-02-25T08:12:59;6.80;99.20
4487;DHT22;2256;48.740;9.106;2023-02-25T08:15:26;6.50;99.80
4487;DHT22;2256;48.740;9.106;2023-02-25T08:17:53;6.30;99.60
4487;DHT22;2256;48.740;9.106;2023-02-25T08:20:20;6.00;99.90
4487;DHT22;2256;48.740;9.106;2023-02-25T08:22:48;5.80;99.90
4487;DHT22;2256;48.740;9.106;2023-02-25T08:25:15;5.60;99.90
4487;DHT22;2256;48.740;9.106;2023-02-25T08:27:42;5.80;99.90
4487;DHT22;2256;48.740;9.106;2023-02-25T08:30:10;5.70;99.90
4487;DHT22;2256;48.740;9.106;2023-02-25T08:32:38;5.60;99.90
4487;DHT22;2256;48.740;9.106;2023-02-25T08:35:06;5.70;99.90
4487;DHT22;2256;48.740;9.106;2023-02-25T08:37:34;5.40;99.90
4487;DHT22;2256;48.740;9.106;2023-02-25T08:40:03;5.40;99.90
4487;DHT22;2256;48.740;9.106;2023-02-25T08:42:34;5.60;99.90
4487;DHT22;2256;48.740;9.106;2023-02-25T08:45:02;6.10;99.90
4487;DHT22;2256;48.740;9.106;2023-02-25T08:47:29;6.40;99.80
4487;DHT22;2256;48.740;9.106;2023-02-25T08:49:56;6.20;98.70
4487;DHT22;2256;48.740;9.106;2023-02-25T08:52:23;5.90;98.80
4487;DHT22;2256;48.740;9.106;2023-02-25T08:54:49;6.40;99.30
4487;DHT22;2256;48.740;9.106;2023-02-25T08:57:18;7.10;97.90
4487;DHT22;2256;48.740;9.106;2023-02-25T08:59:44;8.20;97.10
4487;DHT22;2256;48.740;9.106;2023-02-25T09:02:11;8.30;96.20
4487;DHT22;2256;48.740;9.106;2023-02-25T09:04:41;7.50;96.80
4487;DHT22;2256;48.740;9.106;2023-02-25T09:07:08;6.80;97.60
4487;DHT22;2256;48.740;9.106;2023-02-25T09:09:38;6.50;98.20
4487;DHT22;2256;48.740;9.106;2023-02-25T09:12:05;6.40;98.40
4487;DHT22;2256;48.740;9.106;2023-02-25T09:14:34;6.40;98.30
4487;DHT22;2256;48.740;9.106;2023-02-25T09:17:01;6.20;98.40
4487;DHT22;2256;48.740;9.106;2023-02-25T09:19:28;6.10;98.70
4487;DHT22;2256;48.740;9.106;2023-02-25T09:21:54;5.80;98.70
4487;DHT22;2256;48.740;9.106;2023-02-25T09:24:21;5.70;99.20
4487;DHT22;2256;48.740;9.106;2023-02-25T09:26:48;5.40;98.50
4487;DHT22;2256;48.740;9.106;2023-02-25T09:29:16;5.30;99.30
4487;DHT22;2256;48.740;9.106;2023-02-25T09:31:44;5.30;98.80
4487;DHT22;2256;48.740;9.106;2023-02-25T09:34:11;5.20;99.00
4487;DHT22;2256;48.740;9.106;2023-02-25T09:36:40;5.30;98.80
4487;DHT22;2256;48.740;9.106;2023-02-25T09:39:07;5.70;99.40
4487;DHT22;2256;48.740;9.106;2023-02-25T09:41:40;7.50;98.90
4487;DHT22;2256;48.740;9.106;2023-02-25T09:44:11;10.00;96.00
4487;DHT22;2256;48.740;9.106;2023-02-25T09:46:46;12.10;93.40
4487;DHT22;2256;48.740;9.106;2023-02-25T09:49:19;12.90;91.00
4487;DHT22;2256;48.740;9.106;2023-02-25T09:51:51;13.20;89.70
4487;DHT22;2256;48.740;9.106;2023-02-25T09:54:23;12.10;87.00
4487;DHT22;2256;48.740;9.106;2023-02-25T09:56:53;10.60;88.60
4487;DHT22;2256;48.740;9.106;2023-02-25T09:59:20;9.30;90.80
4487;DHT22;2256;48.740;9.106;2023-02-25T10:01:53;8.90;91.80
4487;DHT22;2256;48.740;9.106;2023-02-25T10:04:27;9.00;91.70
4487;DHT22;2256;48.740;9.106;2023-02-25T10:07:02;8.80;92.30
4487;DHT22;2256;48.740;9.106;2023-02-25T10:09:38;8.50;92.50
4487;DHT22;2256;48.740;9.106;2023-02-25T10:12:15;8.20;93.00
4487;DHT22;2256;48.740;9.106;2023-02-25T10:15:03;8.10;93.10
4487;DHT22;2256;48.740;9.106;2023-02-25T10:17:46;7.60;92.50
4487;DHT22;2256;48.740;9.106;2023-02-25T10:20:38;7.10;92.50
4487;DHT22;2256;48.740;9.106;2023-02-25T10:23:18;6.90;93.20
4487;DHT22;2256;48.740;9.106;2023-02-25T10:25:55;6.90;92.70
4487;DHT22;2256;48.740;9.106;2023-02-25T10:28:22;6.80;92.60
4487;DHT22;2256;48.740;9.106;2023-02-25T10:30:53;6.90;92.70
4487;DHT22;2256;48.740;9.106;2023-02-25T10:33:26;6.90;92.90
4487;DHT22;2256;48.740;9.106;2023-02-25T10:35:56;6.90;92.00
4487;DHT22;2256;48.740;9.106;2023-02-25T10:38:26;6.80;92.90
4487;DHT22;2256;48.740;9.106;2023-02-25T10:40:55;6.80;92.90
4487;DHT22;2256;48.740;9.106;2023-02-25T10:43:25;6.80;92.60
4487;DHT22;2256;48.740;9.106;2023-02-25T10:45:57;6.70;93.70
4487;DHT22;2256;48.740;9.106;2023-02-25T10:48:29;6.70;94.50
4487;DHT22;2256;48.740;9.106;2023-02-25T10:51:05;6.70;94.10
4487;DHT22;2256;48.740;9.106;2023-02-25T10:53:34;6.60;94.20
4487;DHT22;2256;48.740;9.106;2023-02-25T10:56:01;6.60;94.60
4487;DHT22;2256;48.740;9.106;2023-02-25T10:58:35;6.60;94.60
4487;DHT22;2256;48.740;9.106;2023-02-25T11:01:08;6.60;94.10
4487;DHT22;2256;48.740;9.106;2023-02-25T11:03:44;6.50;94.20
4487;DHT22;2256;48.740;9.106;2023-02-25T11:06:17;6.40;93.60
4487;DHT22;2256;48.740;9.106;2023-02-25T11:08:45;6.30;93.70
4487;DHT22;2256;48.740;9.106;2023-02-25T11:11:19;6.20;93.30
4487;DHT22;2256;48.740;9.106;2023-02-25T11:13:55;6.20;94.40
4487;DHT22;2256;48.740;9.106;2023-02-25T11:16:24;6.30;94.10
4487;DHT22;2256;48.740;9.106;2023-02-25T11:18:54;6.40;94.20
4487;DHT22;2256;48.740;9.106;2023-02-25T11:21:34;6.30;93.70
4487;DHT22;2256;48.740;9.106;2023-02-25T11:24:04;6.30;94.00
4487;DHT22;2256;48.740;9.106;2023-02-25T11:26:33;6.40;94.50
4487;DHT22;2256;48.740;9.106;2023-02-25T11:29:03;6.50;94.20
4487;DHT22;2256;48.740;9.106;2023-02-25T11:31:35;6.60;94.10
4487;DHT22;2256;48.740;9.106;2023-02-25T11:34:11;6.90;94.40
4487;DHT22;2256;48.740;9.106;2023-02-25T11:36:39;7.00;93.80
4487;DHT22;2256;48.740;9.106;2023-02-25T11:39:14;7.00;94.20
4487;DHT22;2256;48.740;9.106;2023-02-25T11:41:42;6.90;93.50
4487;DHT22;2256;48.740;9.106;2023-02-25T11:44:18;6.70;94.40
4487;DHT22;2256;48.740;9.106;2023-02-25T11:46:52;6.40;93.90
4487;DHT22;2256;48.740;9.106;2023-02-25T11:49:30;6.20;94.70
4487;DHT22;2256;48.740;9.106;2023-02-25T11:52:05;6.10;94.30
4487;DHT22;2256;48.740;9.106;2023-02-25T11:54:42;5.90;94.70
4487;DHT22;2256;48.740;9.106;2023-02-25T11:57:14;6.00;95.50
4487;DHT22;2256;48.740;9.106;2023-02-25T11:59:54;5.90;94.90
4487;DHT22;2256;48.740;9.106;2023-02-25T12:02:43;6.00;95.60
4487;DHT22;2256;48.740;9.106;2023-02-25T12:05:26;6.10;95.90
4487;DHT22;2256;48.740;9.106;2023-02-25T12:08:20;6.10;95.80
4487;DHT22;2256;48.740;9.106;2023-02-25T12:11:51;6.20;95.50
4487;DHT22;2256;48.740;9.106;2023-02-25T12:14:44;6.10;95.80
4487;DHT22;2256;48.740;9.106;2023-02-25T12:26:07;6.50;96.30
4487;DHT22;2256;48.740;9.106;2023-02-25T12:28:58;6.60;95.80
4487;DHT22;2256;48.740;9.106;2023-02-25T12:31:46;6.70;95.90
4487;DHT22;2256;48.740;9.106;2023-02-25T12:37:28;6.40;96.20
4487;DHT22;2256;48.740;9.106;2023-02-25T12:40:11;6.30;95.80
4487;DHT22;2256;48.740;9.106;2023-02-25T12:42:57;6.10;96.60
4487;DHT22;2256;48.740;9.106;2023-02-25T12:45:37;6.20;96.70
4487;DHT22;2256;48.740;9.106;2023-02-25T12:48:35;6.20;96.40
4487;DHT22;2256;48.740;9.106;2023-02-25T12:51:19;6.00;96.80
4487;DHT22;2256;48.740;9.106;2023-02-25T12:54:00;5.90;97.30
4487;DHT22;2256;48.740;9.106;2023-02-25T12:57:09;5.60;98.20
4487;DHT22;2256;48.740;9.106;2023-02-25T12:59:59;5.50;99.20
4487;DHT22;2256;48.740;9.106;2023-02-25T13:02:47;5.40;99.20
4487;DHT22;2256;48.740;9.106;2023-02-25T13:05:41;5.20;99.60
4487;DHT22;2256;48.740;9.106;2023-02-25T13:08:42;5.20;99.90
4487;DHT22;2256;48.740;9.106;2023-02-25T13:11:19;5.00;99.80
4487;DHT22;2256;48.740;9.106;2023-02-25T13:13:59;4.80;99.90
4487;DHT22;2256;48.740;9.106;2023-02-25T13:16:46;4.70;99.90
4487;DHT22;2256;48.740;9.106;2023-02-25T13:19:27;4.70;99.90
4487;DHT22;2256;48.740;9.106;2023-02-25T13:22:04;4.60;99.90
4487;DHT22;2256;48.740;9.106;2023-02-25T13:24:44;4.60;99.90
4487;DHT22;2256;48.740;9.106;2023-02-25T13:27:48;4.50;99.90
4487;DHT22;2256;48.740;9.106;2023-02-25T13:30:25;4.50;99.90
4487;DHT22;2256;48.740;9.106;2023-02-25T13:33:20;4.50;99.90
4487;DHT22;2256;48.740;9.106;2023-02-25T13:35:55;4.40;99.90
4487;DHT22;2256;48.740;9.106;2023-02-25T13:38:34;4.50;99.90
4487;DHT22;2256;48.740;9.106;2023-02-25T13:41:33;4.60;99.90
4487;DHT22;2256;48.740;9.106;2023-02-25T13:44:26;4.80;99.90
4487;DHT22;2256;48.740;9.106;2023-02-25T13:47:14;4.90;99.90
4487;DHT22;2256;48.740;9.106;2023-02-25T13:52:46;5.30;99.90
4487;DHT22;2256;48.740;9.106;2023-02-25T13:55:44;5.40;99.90
4487;DHT22;2256;48.740;9.106;2023-02-25T14:04:38;5.60;99.90
4487;DHT22;2256;48.740;9.106;2023-02-25T14:07:44;5.60;99.90
4487;DHT22;2256;48.740;9.106;2023-02-25T14:10:24;5.60;99.90
4487;DHT22;2256;48.740;9.106;2023-02-25T14:13:08;5.50;99.90
4487;DHT22;2256;48.740;9.106;2023-02-25T14:15:45;5.30;99.90
4487;DHT22;2256;48.740;9.106;2023-02-25T14:18:24;5.30;99.90
4487;DHT22;2256;48.740;9.106;2023-02-25T14:21:05;5.20;99.90
4487;DHT22;2256;48.740;9.106;2023-02-25T14:23:43;5.10;99.90
4487;DHT22;2256;48.740;9.106;2023-02-25T14:26:22;5.20;99.90
4487;DHT22;2256;48.740;9.106;2023-02-25T14:29:05;5.40;99.80
4487;DHT22;2256;48.740;9.106;2023-02-25T14:31:43;5.60;99.40
4487;DHT22;2256;48.740;9.106;2023-02-25T14:34:25;5.80;98.60
4487;DHT22;2256;48.740;9.106;2023-02-25T14:37:07;6.00;98.60
4487;DHT22;2256;48.740;9.106;2023-02-25T14:39:49;6.30;98.70
4487;DHT22;2256;48.740;9.106;2023-02-25T14:42:37;6.50;97.90
4487;DHT22;2256;48.740;9.106;2023-02-25T14:45:16;6.70;97.30
4487;DHT22;2256;48.740;9.106;2023-02-25T14:47:50;6.70;96.50
4487;DHT22;2256;48.740;9.106;2023-02-25T14:50:23;6.60;96.70
4487;DHT22;2256;48.740;9.106;2023-02-25T14:56:17;6.40;96.80
4487;DHT22;2256;48.740;9.106;2023-02-25T14:59:10;6.30;97.00
4487;DHT22;2256;48.740;9.106;2023-02-25T15:02:05;6.30;97.30
4487;DHT22;2256;48.740;9.106;2023-02-25T15:08:04;6.00;96.10
4487;DHT22;2256;48.740;9.106;2023-02-25T15:10:47;6.00;97.00
4487;DHT22;2256;48.740;9.106;2023-02-25T15:19:55;5.80;97.10
4487;DHT22;2256;48.740;9.106;2023-02-25T15:22:25;5.60;96.70
4487;DHT22;2256;48.740;9.106;2023-02-25T15:25:27;5.50;97.20
4487;DHT22;2256;48.740;9.106;2023-02-25T15:27:55;5.50;96.70
4487;DHT22;2256;48.740;9.106;2023-02-25T15:31:02;5.40;96.80
4487;DHT22;2256;48.740;9.106;2023-02-25T15:33:33;5.40;96.80
4487;DHT22;2256;48.740;9.106;2023-02-25T15:36:01;5.40;96.70
4487;DHT22;2256;48.740;9.106;2023-02-25T15:38:45;5.30;96.40
4487;DHT22;2256;48.740;9.106;2023-02-25T15:41:39;5.20;97.00
4487;DHT22;2256;48.740;9.106;2023-02-25T15:44:29;5.10;96.80
4487;DHT22;2256;48.740;9.106;2023-02-25T15:47:26;5.10;97.00
4487;DHT22;2256;48.740;9.106;2023-02-25T15:49:56;5.00;97.50
4487;DHT22;2256;48.740;9.106;2023-02-25T15:52:52;5.00;97.50
4487;DHT22;2256;48.740;9.106;2023-02-25T15:55:33;5.00;97.30
4487;DHT22;2256;48.740;9.106;2023-02-25T15:58:42;5.00;97.50
4487;DHT22;2256;48.740;9.106;2023-02-25T16:01:28;5.00;97.20
4487;DHT22;2256;48.740;9.106;2023-02-25T16:06:52;5.10;97.20
4487;DHT22;2256;48.740;9.106;2023-02-25T16:09:20;5.00;97.50
4487;DHT22;2256;48.740;9.106;2023-02-25T16:11:49;4.90;97.80
4487;DHT22;2256;48.740;9.106;2023-02-25T16:14:22;4.90;97.90
4487;DHT22;2256;48.740;9.106;2023-02-25T16:16:54;4.80;98.10
4487;DHT22;2256;48.740;9.106;2023-02-25T16:19:24;4.80;98.00
4487;DHT22;2256;48.740;9.106;2023-02-25T16:21:56;4.70;99.00
4487;DHT22;2256;48.740;9.106;2023-02-25T16:24:23;4.60;99.90
4487;DHT22;2256;48.740;9.106;2023-02-25T16:26:57;4.20;99.90
4487;DHT22;2256;48.740;9.106;2023-02-25T16:29:43;3.90;99.90
4487;DHT22;2256;48.740;9.106;2023-02-25T16:32:22;3.70;99.90
4487;DHT22;2256;48.740;9.106;2023-02-25T16:34:57;3.50;99.90
4487;DHT22;2256;48.740;9.106;2023-02-25T16:37:31;3.30;99.90
4487;DHT22;2256;48.740;9.106;2023-02-25T16:39:59;3.20;99.90
4487;DHT22;2256;48.740;9.106;2023-02-25T16:42:31;3.10;99.90
4487;DHT22;2256;48.740;9.106;2023-02-25T16:45:02;3.00;99.90
4487;DHT22;2256;48.740;9.106;2023-02-25T16:47:31;2.90;99.90
4487;DHT22;2256;48.740;9.106;2023-02-25T16:50:02;2.90;99.90
4487;DHT22;2256;48.740;9.106;2023-02-25T16:52:34;2.70;99.90
4487;DHT22;2256;48.740;9.106;2023-02-25T16:55:06;2.80;99.90
4487;DHT22;2256;48.740;9.106;2023-02-25T16:57:36;2.90;99.90
4487;DHT22;2256;48.740;9.106;2023-02-25T17:00:13;2.90;99.90
4487;DHT22;2256;48.740;9.106;2023-02-25T17:02:46;3.00;99.90
4487;DHT22;2256;48.740;9.106;2023-02-25T17:05:26;3.10;99.90
4487;DHT22;2256;48.740;9.106;2023-02-25T17:07:54;3.10;99.90
4487;DHT22;2256;48.740;9.106;2023-02-25T17:10:25;3.20;99.90
4487;DHT22;2256;48.740;9.106;2023-02-25T17:12:52;3.20;99.90
4487;DHT22;2256;48.740;9.106;2023-02-25T17:15:24;3.20;99.90
4487;DHT22;2256;48.740;9.106;2023-02-25T17:17:58;3.10;99.90
4487;DHT22;2256;48.740;9.106;2023-02-25T17:20:27;3.10;99.90
4487;DHT22;2256;48.740;9.106;2023-02-25T17:22:54;3.20;99.90
4487;DHT22;2256;48.740;9.106;2023-02-25T17:25:24;3.10;99.90
4487;DHT22;2256;48.740;9.106;2023-02-25T17:27:52;3.30;99.90
4487;DHT22;2256;48.740;9.106;2023-02-25T17:30:38;3.00;99.90
4487;DHT22;2256;48.740;9.106;2023-02-25T17:33:09;2.90;99.90